createdAt,value
2016-10-24T00:00:53.373Z,930.57
2016-10-24T00:02:04.527Z,930.6
2016-10-24T00:03:15.689Z,930.57
2016-10-24T00:04:26.896Z,930.57
2016-10-24T00:05:38.072Z,930.58
2016-10-24T00:06:49.779Z,930.63
2016-10-24T00:08:00.934Z,930.64
2016-10-24T00:09:12.140Z,930.62
2016-10-24T00:10:23.273Z,930.62
2016-10-24T00:11:34.452Z,930.63
2016-10-24T00:12:45.602Z,930.62
2016-10-24T00:13:56.776Z,930.57
2016-10-24T00:15:07.948Z,930.52
2016-10-24T00:16:19.112Z,930.53
2016-10-24T00:17:30.271Z,930.53
2016-10-24T00:18:41.493Z,930.51
2016-10-24T00:19:52.675Z,930.48
2016-10-24T00:21:03.835Z,930.46
2016-10-24T00:22:15.006Z,930.44
2016-10-24T00:23:26.208Z,930.43
2016-10-24T00:24:37.397Z,930.41
2016-10-24T00:25:48.582Z,930.42
2016-10-24T00:26:59.723Z,930.44
2016-10-24T00:28:10.871Z,930.46
2016-10-24T00:29:22.029Z,930.48
2016-10-24T00:30:33.197Z,930.45
2016-10-24T00:31:44.369Z,930.44
2016-10-24T00:32:55.530Z,930.46
2016-10-24T00:34:07.267Z,930.48
2016-10-24T00:35:18.429Z,930.45
2016-10-24T00:36:29.613Z,930.53
2016-10-24T00:37:40.791Z,930.56
2016-10-24T00:38:51.936Z,930.56
2016-10-24T00:40:03.066Z,930.59
2016-10-24T00:41:14.224Z,930.58
2016-10-24T00:42:25.382Z,930.51
2016-10-24T00:43:36.622Z,930.58
2016-10-24T00:44:47.803Z,930.48
2016-10-24T00:45:58.945Z,930.51
2016-10-24T00:47:10.111Z,930.48
2016-10-24T00:48:21.270Z,930.49
2016-10-24T00:49:32.416Z,930.52
2016-10-24T00:50:43.636Z,930.51
2016-10-24T00:51:54.804Z,930.49
2016-10-24T00:53:05.971Z,930.49
2016-10-24T00:54:17.141Z,930.46
2016-10-24T00:55:28.280Z,930.48
2016-10-24T00:56:39.448Z,930.32
2016-10-24T00:57:51.169Z,930.48
2016-10-24T00:59:02.349Z,930.39
2016-10-24T01:00:14.073Z,930.42
2016-10-24T01:01:25.246Z,930.45
2016-10-24T01:02:36.388Z,930.45
2016-10-24T01:03:47.556Z,930.5
2016-10-24T01:04:58.703Z,930.53
2016-10-24T01:06:09.875Z,930.54
2016-10-24T01:07:21.066Z,930.52
2016-10-24T01:08:32.231Z,930.54
2016-10-24T01:09:43.393Z,930.55
2016-10-24T01:10:54.550Z,930.51
2016-10-24T01:12:05.695Z,930.55
2016-10-24T01:13:16.874Z,930.56
2016-10-24T01:14:28.040Z,930.56
2016-10-24T01:15:39.205Z,930.48
2016-10-24T01:16:50.395Z,930.44
2016-10-24T01:18:01.543Z,930.42
2016-10-24T01:19:12.691Z,930.37
2016-10-24T01:20:23.906Z,930.34
2016-10-24T01:21:35.068Z,930.32
2016-10-24T01:22:46.254Z,930.31
2016-10-24T01:23:57.425Z,930.29
2016-10-24T01:25:08.608Z,930.29
2016-10-24T01:26:20.374Z,930.29
2016-10-24T01:27:31.523Z,930.28
2016-10-24T01:28:42.711Z,930.26
2016-10-24T01:29:53.887Z,930.22
2016-10-24T01:31:05.043Z,930.22
2016-10-24T01:32:16.267Z,930.2
2016-10-24T01:33:27.461Z,930.19
2016-10-24T01:34:38.641Z,930.21
2016-10-24T01:35:49.816Z,930.24
2016-10-24T01:37:00.960Z,930.22
2016-10-24T01:38:12.117Z,930.23
2016-10-24T01:39:23.285Z,930.21
2016-10-24T01:40:34.460Z,930.22
2016-10-24T01:41:45.617Z,930.23
2016-10-24T01:42:56.797Z,930.2
2016-10-24T01:44:07.975Z,930.22
2016-10-24T01:45:19.163Z,930.25
2016-10-24T01:46:30.341Z,930.26
2016-10-24T01:47:41.489Z,930.28
2016-10-24T01:48:52.656Z,930.23
2016-10-24T01:50:03.810Z,930.25
2016-10-24T01:51:14.985Z,930.25
2016-10-24T01:52:26.119Z,930.24
2016-10-24T01:53:37.278Z,930.24
2016-10-24T01:54:48.498Z,930.27
2016-10-24T01:55:59.682Z,930.24
2016-10-24T01:57:10.908Z,930.23
2016-10-24T01:58:22.061Z,930.21
2016-10-24T01:59:33.210Z,930.19
2016-10-24T02:00:44.373Z,930.14
2016-10-24T02:01:55.583Z,930.17
2016-10-24T02:03:06.735Z,930.17
2016-10-24T02:04:17.890Z,930.15
2016-10-24T02:05:29.032Z,930.14
2016-10-24T02:06:40.241Z,930.14
2016-10-24T02:07:51.412Z,930.14
2016-10-24T02:09:02.581Z,930.13
2016-10-24T02:10:13.746Z,930.1
2016-10-24T02:11:25.476Z,930.09
2016-10-24T02:12:36.639Z,930.05
2016-10-24T02:13:47.833Z,930.05
2016-10-24T02:14:59.007Z,930
2016-10-24T02:16:10.250Z,930
2016-10-24T02:17:21.396Z,929.98
2016-10-24T02:18:32.580Z,929.96
2016-10-24T02:19:43.740Z,929.96
2016-10-24T02:20:54.883Z,929.89
2016-10-24T02:22:06.608Z,929.88
2016-10-24T02:23:17.782Z,929.89
2016-10-24T02:24:28.923Z,929.86
2016-10-24T02:25:40.660Z,929.87
2016-10-24T02:26:51.838Z,929.85
2016-10-24T02:28:02.990Z,929.86
2016-10-24T02:29:14.162Z,929.86
2016-10-24T02:30:25.349Z,929.86
2016-10-24T02:31:36.512Z,929.82
2016-10-24T02:32:47.659Z,929.81
2016-10-24T02:33:58.817Z,929.81
2016-10-24T02:35:09.987Z,929.73
2016-10-24T02:36:21.169Z,929.73
2016-10-24T02:37:32.339Z,929.73
2016-10-24T02:38:43.483Z,929.69
2016-10-24T02:39:54.639Z,929.65
2016-10-24T02:41:05.831Z,929.64
2016-10-24T02:42:16.981Z,929.63
2016-10-24T02:43:28.127Z,929.54
2016-10-24T02:44:39.309Z,929.58
2016-10-24T02:45:50.489Z,929.59
2016-10-24T02:47:01.712Z,929.56
2016-10-24T02:48:12.867Z,929.58
2016-10-24T02:49:24.055Z,929.52
2016-10-24T02:50:35.271Z,929.55
2016-10-24T02:51:46.416Z,929.53
2016-10-24T02:52:57.559Z,929.52
2016-10-24T02:54:08.719Z,929.51
2016-10-24T02:55:19.903Z,929.5
2016-10-24T02:56:31.045Z,929.5
2016-10-24T02:57:42.197Z,929.41
2016-10-24T02:58:53.361Z,929.46
2016-10-24T03:00:04.567Z,929.42
2016-10-24T03:01:15.712Z,929.43
2016-10-24T03:02:26.883Z,929.41
2016-10-24T03:03:38.034Z,929.44
2016-10-24T03:04:49.209Z,929.48
2016-10-24T03:06:00.373Z,929.52
2016-10-24T03:07:11.530Z,929.57
2016-10-24T03:08:22.809Z,929.59
2016-10-24T03:09:34.001Z,929.62
2016-10-24T03:10:45.171Z,929.6
2016-10-24T03:11:56.329Z,929.52
2016-10-24T03:13:08.033Z,929.51
2016-10-24T03:14:19.198Z,929.47
2016-10-24T03:15:30.336Z,929.52
2016-10-24T03:16:41.499Z,929.53
2016-10-24T03:17:53.212Z,929.52
2016-10-24T03:19:04.930Z,929.5
2016-10-24T03:20:16.125Z,929.49
2016-10-24T03:21:27.285Z,929.48
2016-10-24T03:22:38.430Z,929.46
2016-10-24T03:23:49.619Z,929.49
2016-10-24T03:25:00.789Z,929.46
2016-10-24T03:26:11.917Z,929.48
2016-10-24T03:27:23.079Z,929.41
2016-10-24T03:28:34.248Z,929.46
2016-10-24T03:29:45.408Z,929.44
2016-10-24T03:30:56.575Z,929.42
2016-10-24T03:32:07.781Z,929.34
2016-10-24T03:33:19.296Z,929.29
2016-10-24T03:34:30.462Z,929.26
2016-10-24T03:35:41.642Z,929.3
2016-10-24T03:36:52.862Z,929.28
2016-10-24T03:38:04.014Z,929.27
2016-10-24T03:39:15.153Z,929.3
2016-10-24T03:40:26.308Z,929.28
2016-10-24T03:41:37.469Z,929.24
2016-10-24T03:42:48.640Z,929.23
2016-10-24T03:43:59.823Z,929.21
2016-10-24T03:45:10.997Z,929.16
2016-10-24T03:46:22.163Z,929.15
2016-10-24T03:47:33.322Z,929.16
2016-10-24T03:48:44.494Z,929.1
2016-10-24T03:49:55.629Z,929.09
2016-10-24T03:51:06.813Z,929.08
2016-10-24T03:52:17.982Z,929.05
2016-10-24T03:53:29.142Z,929.07
2016-10-24T03:54:40.295Z,929.06
2016-10-24T03:55:51.446Z,929.03
2016-10-24T03:57:02.602Z,928.99
2016-10-24T03:58:13.774Z,928.96
2016-10-24T03:59:24.924Z,928.95
2016-10-24T04:00:36.111Z,928.93
2016-10-24T04:01:47.265Z,928.9
2016-10-24T04:02:58.429Z,928.86
2016-10-24T04:04:09.584Z,928.85
2016-10-24T04:05:20.770Z,928.78
2016-10-24T04:06:31.932Z,928.8
2016-10-24T04:07:43.105Z,928.73
2016-10-24T04:08:54.258Z,928.76
2016-10-24T04:10:05.464Z,928.79
2016-10-24T04:11:16.633Z,928.77
2016-10-24T04:12:28.361Z,928.8
2016-10-24T04:13:39.504Z,928.76
2016-10-24T04:14:50.676Z,928.76
2016-10-24T04:16:01.867Z,928.7
2016-10-24T04:17:13.035Z,928.64
2016-10-24T04:18:24.169Z,928.63
2016-10-24T04:19:35.348Z,928.62
2016-10-24T04:20:46.506Z,928.6
2016-10-24T04:21:57.691Z,928.55
2016-10-24T04:23:08.847Z,928.56
2016-10-24T04:24:20.017Z,928.54
2016-10-24T04:25:31.205Z,928.52
2016-10-24T04:26:42.373Z,928.49
2016-10-24T04:27:53.577Z,928.46
2016-10-24T04:29:04.743Z,928.44
2016-10-24T04:30:15.909Z,928.41
2016-10-24T04:31:27.051Z,928.4
2016-10-24T04:32:38.219Z,928.41
2016-10-24T04:33:49.408Z,928.41
2016-10-24T04:35:00.624Z,928.4
2016-10-24T04:36:12.355Z,928.4
2016-10-24T04:37:23.557Z,928.38
2016-10-24T04:38:34.705Z,928.44
2016-10-24T04:39:45.877Z,928.43
2016-10-24T04:40:57.060Z,928.47
2016-10-24T04:42:08.234Z,928.45
2016-10-24T04:43:19.369Z,928.48
2016-10-24T04:44:30.527Z,928.45
2016-10-24T04:45:41.719Z,928.45
2016-10-24T04:46:52.883Z,928.37
2016-10-24T04:48:04.049Z,928.31
2016-10-24T04:49:15.222Z,928.31
2016-10-24T04:50:26.378Z,928.27
2016-10-24T04:51:37.561Z,928.29
2016-10-24T04:52:48.739Z,928.26
2016-10-24T04:53:59.892Z,928.24
2016-10-24T04:55:11.071Z,928.28
2016-10-24T04:56:22.261Z,928.27
2016-10-24T04:57:33.423Z,928.22
2016-10-24T04:58:44.572Z,928.22
2016-10-24T04:59:55.739Z,928.22
2016-10-24T05:01:06.914Z,928.23
2016-10-24T05:02:18.097Z,928.24
2016-10-24T05:03:29.279Z,928.22
2016-10-24T05:04:40.439Z,928.19
2016-10-24T05:05:51.602Z,928.2
2016-10-24T05:07:02.769Z,928.16
2016-10-24T05:08:13.918Z,928.11
2016-10-24T05:09:25.668Z,928.09
2016-10-24T05:10:36.849Z,928.06
2016-10-24T05:11:48.023Z,928.05
2016-10-24T05:12:59.206Z,928.07
2016-10-24T05:14:10.376Z,928.03
2016-10-24T05:15:21.588Z,928.08
2016-10-24T05:16:32.737Z,928.08
2016-10-24T05:17:43.897Z,928.03
2016-10-24T05:18:55.093Z,928.09
2016-10-24T05:20:06.228Z,928.07
2016-10-24T05:21:17.430Z,928.04
2016-10-24T05:22:28.565Z,927.99
2016-10-24T05:23:39.751Z,928
2016-10-24T05:24:50.907Z,928.01
2016-10-24T05:26:02.043Z,928.02
2016-10-24T05:27:13.751Z,927.97
2016-10-24T05:28:24.928Z,927.93
2016-10-24T05:29:36.131Z,927.95
2016-10-24T05:30:47.285Z,927.93
2016-10-24T05:31:58.436Z,927.92
2016-10-24T05:33:09.597Z,927.9
2016-10-24T05:34:20.762Z,927.88
2016-10-24T05:35:31.943Z,927.79
2016-10-24T05:36:43.103Z,927.93
2016-10-24T05:37:54.261Z,927.93
2016-10-24T05:39:05.413Z,927.92
2016-10-24T05:40:16.556Z,927.95
2016-10-24T05:41:27.715Z,927.91
2016-10-24T05:42:38.904Z,927.92
2016-10-24T05:43:50.057Z,927.96
2016-10-24T05:45:01.249Z,927.95
2016-10-24T05:46:12.461Z,927.92
2016-10-24T05:47:23.609Z,927.93
2016-10-24T05:48:34.806Z,927.98
2016-10-24T05:49:46.552Z,927.9
2016-10-24T05:50:58.289Z,927.84
2016-10-24T05:52:09.448Z,927.84
2016-10-24T05:53:20.622Z,927.82
2016-10-24T05:54:31.847Z,927.78
2016-10-24T05:55:43.002Z,927.8
2016-10-24T05:56:54.158Z,927.81
2016-10-24T05:58:05.348Z,927.81
2016-10-24T05:59:16.550Z,927.81
2016-10-24T06:00:27.739Z,927.82
2016-10-24T06:01:38.889Z,927.78
2016-10-24T06:02:50.057Z,927.75
2016-10-24T06:04:01.224Z,927.76
2016-10-24T06:05:12.433Z,927.7
2016-10-24T06:06:23.627Z,927.7
2016-10-24T06:07:34.780Z,927.67
2016-10-24T06:08:45.938Z,927.7
2016-10-24T06:09:57.118Z,927.73
2016-10-24T06:11:08.258Z,927.75
2016-10-24T06:12:19.420Z,927.81
2016-10-24T06:13:30.621Z,927.82
2016-10-24T06:14:41.771Z,927.85
2016-10-24T06:15:52.909Z,927.8
2016-10-24T06:17:04.067Z,927.79
2016-10-24T06:18:15.213Z,927.76
2016-10-24T06:19:26.399Z,927.72
2016-10-24T06:20:37.603Z,927.73
2016-10-24T06:21:48.774Z,927.71
2016-10-24T06:22:59.947Z,927.74
2016-10-24T06:24:11.307Z,927.71
2016-10-24T06:25:22.472Z,927.73
2016-10-24T06:26:33.695Z,927.75
2016-10-24T06:27:44.890Z,927.74
2016-10-24T06:28:56.049Z,927.78
2016-10-24T06:30:07.240Z,927.77
2016-10-24T06:31:18.418Z,927.76
2016-10-24T06:32:29.632Z,927.74
2016-10-24T06:33:40.782Z,927.75
2016-10-24T06:34:51.935Z,927.73
2016-10-24T06:36:03.114Z,927.75
2016-10-24T06:37:14.302Z,927.73
2016-10-24T06:38:25.459Z,927.71
2016-10-24T06:39:36.794Z,927.79
2016-10-24T06:40:48.072Z,927.79
2016-10-24T06:41:59.244Z,927.83
2016-10-24T06:43:10.401Z,927.86
2016-10-24T06:44:21.583Z,927.86
2016-10-24T06:45:32.757Z,927.87
2016-10-24T06:46:43.884Z,927.88
2016-10-24T06:47:55.020Z,927.86
2016-10-24T06:49:06.206Z,927.87
2016-10-24T06:50:17.394Z,927.86
2016-10-24T06:51:28.584Z,927.88
2016-10-24T06:52:39.773Z,927.88
2016-10-24T06:53:50.954Z,927.84
2016-10-24T06:55:02.116Z,927.83
2016-10-24T06:56:13.839Z,927.87
2016-10-24T06:57:24.999Z,927.85
2016-10-24T06:58:36.150Z,927.87
2016-10-24T06:59:47.315Z,927.9
2016-10-24T07:00:58.492Z,927.86
2016-10-24T07:02:09.693Z,927.88
2016-10-24T07:03:20.834Z,927.88
2016-10-24T07:04:31.999Z,927.86
2016-10-24T07:05:43.158Z,927.85
2016-10-24T07:06:54.345Z,927.86
2016-10-24T07:08:05.533Z,927.79
2016-10-24T07:09:16.717Z,927.76
2016-10-24T07:10:27.885Z,927.74
2016-10-24T07:11:39.057Z,927.73
2016-10-24T07:12:50.214Z,927.68
2016-10-24T07:14:01.369Z,927.73
2016-10-24T07:15:12.514Z,927.75
2016-10-24T07:16:24.262Z,927.77
2016-10-24T07:17:35.403Z,927.77
2016-10-24T07:18:46.583Z,927.73
2016-10-24T07:19:57.794Z,927.77
2016-10-24T07:21:08.954Z,927.76
2016-10-24T07:22:20.126Z,927.77
2016-10-24T07:23:31.296Z,927.77
2016-10-24T07:24:42.435Z,927.76
2016-10-24T07:25:53.573Z,927.73
2016-10-24T07:27:04.739Z,927.72
2016-10-24T07:28:16.459Z,927.7
2016-10-24T07:29:27.600Z,927.7
2016-10-24T07:30:38.747Z,927.69
2016-10-24T07:31:49.900Z,927.66
2016-10-24T07:33:01.046Z,927.65
2016-10-24T07:34:12.241Z,927.69
2016-10-24T07:35:23.432Z,927.7
2016-10-24T07:36:34.572Z,927.67
2016-10-24T07:37:45.729Z,927.7
2016-10-24T07:38:56.894Z,927.7
2016-10-24T07:40:08.041Z,927.72
2016-10-24T07:41:19.223Z,927.76
2016-10-24T07:42:30.414Z,927.77
2016-10-24T07:43:41.553Z,927.78
2016-10-24T07:44:52.772Z,927.82
2016-10-24T07:46:03.910Z,927.82
2016-10-24T07:47:15.082Z,927.83
2016-10-24T07:48:26.241Z,927.85
2016-10-24T07:49:37.434Z,927.86
2016-10-24T07:50:48.592Z,927.86
2016-10-24T07:51:59.757Z,927.86
2016-10-24T07:53:10.956Z,927.9
2016-10-24T07:54:22.123Z,927.88
2016-10-24T07:55:33.269Z,927.84
2016-10-24T07:56:44.427Z,927.86
2016-10-24T07:57:55.564Z,927.84
2016-10-24T07:59:06.718Z,927.81
2016-10-24T08:00:17.886Z,927.86
2016-10-24T08:01:29.080Z,927.84
2016-10-24T08:02:40.272Z,927.85
2016-10-24T08:03:51.428Z,927.87
2016-10-24T08:05:02.611Z,927.86
2016-10-24T08:06:13.770Z,927.89
2016-10-24T08:07:24.953Z,927.89
2016-10-24T08:08:36.152Z,927.91
2016-10-24T08:09:47.320Z,927.92
2016-10-24T08:10:58.460Z,927.91
2016-10-24T08:12:09.612Z,927.91
2016-10-24T08:13:20.805Z,927.9
2016-10-24T08:14:31.968Z,927.89
2016-10-24T08:15:43.139Z,927.9
2016-10-24T08:16:54.288Z,927.91
2016-10-24T08:18:05.480Z,927.85
2016-10-24T08:19:16.639Z,927.85
2016-10-24T08:20:27.786Z,927.79
2016-10-24T08:21:38.956Z,927.75
2016-10-24T08:22:50.191Z,927.75
2016-10-24T08:24:01.349Z,927.74
2016-10-24T08:25:12.493Z,927.72
2016-10-24T08:26:23.635Z,927.69
2016-10-24T08:27:34.784Z,927.66
2016-10-24T08:28:45.948Z,927.7
2016-10-24T08:29:57.100Z,927.68
2016-10-24T08:31:08.245Z,927.68
2016-10-24T08:32:19.389Z,927.74
2016-10-24T08:33:30.560Z,927.75
2016-10-24T08:34:41.734Z,927.82
2016-10-24T08:35:52.906Z,927.81
2016-10-24T08:37:04.152Z,927.81
2016-10-24T08:38:15.298Z,927.87
2016-10-24T08:39:27.163Z,927.87
2016-10-24T08:40:38.373Z,927.88
2016-10-24T08:41:49.548Z,927.87
2016-10-24T08:43:00.716Z,927.86
2016-10-24T08:44:12.406Z,927.82
2016-10-24T08:45:23.571Z,927.81
2016-10-24T08:46:34.744Z,927.81
2016-10-24T08:47:45.920Z,927.78
2016-10-24T08:48:57.066Z,927.81
2016-10-24T08:50:08.242Z,927.86
2016-10-24T08:51:19.413Z,927.87
2016-10-24T08:52:31.181Z,927.85
2016-10-24T08:53:42.331Z,927.89
2016-10-24T08:54:53.549Z,927.94
2016-10-24T08:56:04.701Z,927.96
2016-10-24T08:57:15.842Z,927.98
2016-10-24T08:58:27.011Z,928
2016-10-24T08:59:38.223Z,928.01
2016-10-24T09:00:49.958Z,928.02
2016-10-24T09:02:01.127Z,928.04
2016-10-24T09:03:12.300Z,928.1
2016-10-24T09:04:23.478Z,928.08
2016-10-24T09:05:34.635Z,928.15
2016-10-24T09:06:45.811Z,928.13
2016-10-24T09:07:56.956Z,928.13
2016-10-24T09:09:08.119Z,928.13
2016-10-24T09:10:19.277Z,928.12
2016-10-24T09:11:30.443Z,928.11
2016-10-24T09:12:41.607Z,928.12
2016-10-24T09:13:52.806Z,928.08
2016-10-24T09:15:04.523Z,928.12
2016-10-24T09:16:15.701Z,928.08
2016-10-24T09:17:26.881Z,928.04
2016-10-24T09:18:38.073Z,928.01
2016-10-24T09:19:49.227Z,928.03
2016-10-24T09:21:00.422Z,928.05
2016-10-24T09:22:11.591Z,928.05
2016-10-24T09:23:22.741Z,928.09
2016-10-24T09:24:33.896Z,928.12
2016-10-24T09:25:45.366Z,928.19
2016-10-24T09:26:57.080Z,928.23
2016-10-24T09:28:08.233Z,928.26
2016-10-24T09:29:19.418Z,928.29
2016-10-24T09:30:30.615Z,928.31
2016-10-24T09:31:41.807Z,928.32
2016-10-24T09:32:52.978Z,928.32
2016-10-24T09:34:04.156Z,928.31
2016-10-24T09:35:15.339Z,928.3
2016-10-24T09:36:26.519Z,928.37
2016-10-24T09:37:37.704Z,928.42
2016-10-24T09:38:48.850Z,928.41
2016-10-24T09:40:00.013Z,928.4
2016-10-24T09:41:11.173Z,928.41
2016-10-24T09:42:22.370Z,928.4
2016-10-24T09:43:33.533Z,928.41
2016-10-24T09:44:44.715Z,928.39
2016-10-24T09:45:55.890Z,928.38
2016-10-24T09:47:07.102Z,928.39
2016-10-24T09:48:18.322Z,928.38
2016-10-24T09:49:29.505Z,928.4
2016-10-24T09:50:40.679Z,928.39
2016-10-24T09:51:51.880Z,928.4
2016-10-24T09:53:03.057Z,928.45
2016-10-24T09:54:14.208Z,928.47
2016-10-24T09:55:25.411Z,928.53
2016-10-24T09:56:36.584Z,928.5
2016-10-24T09:57:47.738Z,928.5
2016-10-24T09:58:58.888Z,928.47
2016-10-24T10:00:10.039Z,928.5
2016-10-24T10:01:21.228Z,928.48
2016-10-24T10:02:32.398Z,928.54
2016-10-24T10:03:43.552Z,928.55
2016-10-24T10:04:54.695Z,928.55
2016-10-24T10:06:05.877Z,928.55
2016-10-24T10:07:17.081Z,928.53
2016-10-24T10:08:28.285Z,928.53
2016-10-24T10:09:39.451Z,928.52
2016-10-24T10:10:50.610Z,928.51
2016-10-24T10:12:01.781Z,928.55
2016-10-24T10:13:12.971Z,928.53
2016-10-24T10:14:24.114Z,928.54
2016-10-24T10:15:35.271Z,928.5
2016-10-24T10:16:46.435Z,928.49
2016-10-24T10:17:57.585Z,928.57
2016-10-24T10:19:08.752Z,928.51
2016-10-24T10:20:19.930Z,928.55
2016-10-24T10:21:31.106Z,928.51
2016-10-24T10:22:42.263Z,928.53
2016-10-24T10:23:53.568Z,928.55
2016-10-24T10:25:04.820Z,928.58
2016-10-24T10:26:15.972Z,928.58
2016-10-24T10:27:27.129Z,928.58
2016-10-24T10:28:38.321Z,928.54
2016-10-24T10:29:49.483Z,928.53
2016-10-24T10:31:01.438Z,928.54
2016-10-24T10:32:12.598Z,928.52
2016-10-24T10:33:23.815Z,928.52
2016-10-24T10:34:35.203Z,928.5
2016-10-24T10:35:46.394Z,928.51
2016-10-24T10:36:57.573Z,928.47
2016-10-24T10:38:08.748Z,928.51
2016-10-24T10:39:19.937Z,928.52
2016-10-24T10:40:31.129Z,928.56
2016-10-24T10:41:42.346Z,928.55
2016-10-24T10:42:53.552Z,928.61
2016-10-24T10:44:04.740Z,928.65
2016-10-24T10:45:15.897Z,928.66
2016-10-24T10:46:27.057Z,928.68
2016-10-24T10:47:38.256Z,928.64
2016-10-24T10:48:49.525Z,928.68
2016-10-24T10:50:02.678Z,928.69
2016-10-24T10:51:13.868Z,928.68
2016-10-24T10:52:25.063Z,928.68
2016-10-24T10:53:36.228Z,928.71
2016-10-24T10:54:47.344Z,928.69
2016-10-24T10:55:58.607Z,928.68
2016-10-24T10:57:09.291Z,928.73
2016-10-24T10:58:20.005Z,928.7
2016-10-24T10:59:30.732Z,928.62
2016-10-24T11:00:41.470Z,928.72
2016-10-24T11:01:52.704Z,928.73
2016-10-24T11:03:03.439Z,928.7
2016-10-24T11:04:14.193Z,928.71
2016-10-24T11:05:24.903Z,928.73
2016-10-24T11:06:35.683Z,928.77
2016-10-24T11:07:46.483Z,928.79
2016-10-24T11:08:57.270Z,928.8
2016-10-24T11:10:07.989Z,928.82
2016-10-24T11:11:18.686Z,928.77
2016-10-24T11:12:29.397Z,928.83
2016-10-24T11:13:40.126Z,928.84
2016-10-24T11:14:50.842Z,928.88
2016-10-24T11:16:01.612Z,928.85
2016-10-24T11:17:12.319Z,928.91
2016-10-24T11:18:23.056Z,928.97
2016-10-24T11:19:33.770Z,928.99
2016-10-24T11:20:44.502Z,928.99
2016-10-24T11:21:55.233Z,928.99
2016-10-24T11:23:05.931Z,929
2016-10-24T11:24:16.642Z,928.99
2016-10-24T11:25:27.397Z,928.99
2016-10-24T11:26:38.143Z,929.02
2016-10-24T11:27:48.902Z,929.03
2016-10-24T11:29:00.175Z,929.03
2016-10-24T11:30:11.107Z,929.05
2016-10-24T11:31:22.856Z,929
2016-10-24T11:32:33.603Z,929.02
2016-10-24T11:33:44.334Z,929
2016-10-24T11:34:55.054Z,928.96
2016-10-24T11:36:05.798Z,929
2016-10-24T11:37:16.567Z,928.98
2016-10-24T11:38:27.385Z,929.05
2016-10-24T11:39:38.614Z,928.97
2016-10-24T11:40:49.819Z,928.97
2016-10-24T11:42:00.544Z,929.03
2016-10-24T11:43:11.286Z,929
2016-10-24T11:44:22.016Z,929.04
2016-10-24T11:45:32.736Z,929.03
2016-10-24T11:46:43.460Z,929.05
2016-10-24T11:47:54.164Z,929.03
2016-10-24T11:49:04.887Z,929.09
2016-10-24T11:50:15.618Z,929.01
2016-10-24T11:51:26.373Z,929.02
2016-10-24T11:52:37.610Z,929.02
2016-10-24T11:53:48.342Z,929.1
2016-10-24T11:54:59.060Z,929.03
2016-10-24T11:56:09.804Z,929.06
2016-10-24T11:57:20.543Z,929.1
2016-10-24T11:58:31.341Z,929.05
2016-10-24T11:59:42.051Z,929.13
2016-10-24T12:00:52.754Z,929.14
2016-10-24T12:02:03.957Z,929.1
2016-10-24T12:03:14.711Z,929.13
2016-10-24T12:04:25.445Z,929.11
2016-10-24T12:05:36.172Z,929.1
2016-10-24T12:06:46.923Z,929.16
2016-10-24T12:07:58.220Z,929.18
2016-10-24T12:09:08.942Z,929.14
2016-10-24T12:10:19.675Z,929.2
2016-10-24T12:11:30.913Z,929.17
2016-10-24T12:12:41.658Z,929.2
2016-10-24T12:13:52.367Z,929.14
2016-10-24T12:15:03.102Z,929.16
2016-10-24T12:16:13.822Z,929.14
2016-10-24T12:17:24.568Z,929.17
2016-10-24T12:18:35.291Z,929.21
2016-10-24T12:19:46.005Z,929.24
2016-10-24T12:20:56.731Z,929.24
2016-10-24T12:22:07.442Z,929.24
2016-10-24T12:23:18.173Z,929.26
2016-10-24T12:24:28.911Z,929.23
2016-10-24T12:25:39.613Z,929.18
2016-10-24T12:26:50.419Z,929.21
2016-10-24T12:28:01.152Z,929.19
2016-10-24T12:29:11.860Z,929.23
2016-10-24T12:30:23.167Z,929.2
2016-10-24T12:31:33.875Z,929.21
2016-10-24T12:32:44.598Z,929.16
2016-10-24T12:33:55.319Z,929.18
2016-10-24T12:35:07.241Z,929.16
2016-10-24T12:36:18.507Z,929.16
2016-10-24T12:37:29.251Z,929.14
2016-10-24T12:38:39.987Z,929.05
2016-10-24T12:39:50.836Z,929.09
2016-10-24T12:41:02.091Z,929.05
2016-10-24T12:42:12.855Z,929.04
2016-10-24T12:43:23.574Z,929.05
2016-10-24T12:44:34.302Z,929.02
2016-10-24T12:45:45.041Z,929.08
2016-10-24T12:46:55.768Z,929.02
2016-10-24T12:48:06.486Z,928.99
2016-10-24T12:49:17.743Z,929.06
2016-10-24T12:50:28.526Z,929.03
2016-10-24T12:51:39.241Z,929.03
2016-10-24T12:52:49.946Z,928.99
2016-10-24T12:54:00.689Z,928.98
2016-10-24T12:55:11.439Z,928.98
2016-10-24T12:56:22.171Z,929
2016-10-24T12:57:32.892Z,929.01
2016-10-24T12:58:44.316Z,929.04
2016-10-24T12:59:55.045Z,928.97
2016-10-24T13:01:06.280Z,928.97
2016-10-24T13:02:17.004Z,928.98
2016-10-24T13:03:27.755Z,928.97
2016-10-24T13:04:38.476Z,928.96
2016-10-24T13:05:49.734Z,928.98
2016-10-24T13:07:01.006Z,928.98
2016-10-24T13:08:11.740Z,928.97
2016-10-24T13:09:22.508Z,928.95
2016-10-24T13:10:33.240Z,928.98
2016-10-24T13:11:44.481Z,928.94
2016-10-24T13:12:55.186Z,929.04
2016-10-24T13:14:06.043Z,929.02
2016-10-24T13:15:16.814Z,929.01
2016-10-24T13:16:28.182Z,928.98
2016-10-24T13:17:38.910Z,928.96
2016-10-24T13:18:49.631Z,928.93
2016-10-24T13:20:00.349Z,928.92
2016-10-24T13:21:11.619Z,928.92
2016-10-24T13:22:22.351Z,928.9
2016-10-24T13:23:33.082Z,928.91
2016-10-24T13:24:43.811Z,928.86
2016-10-24T13:25:54.535Z,928.9
2016-10-24T13:27:05.236Z,928.9
2016-10-24T13:28:15.941Z,928.9
2016-10-24T13:29:26.679Z,928.85
2016-10-24T13:30:37.420Z,928.82
2016-10-24T13:31:48.109Z,928.81
2016-10-24T13:32:58.811Z,928.75
2016-10-24T13:34:09.535Z,928.72
2016-10-24T13:35:20.375Z,928.68
2016-10-24T13:36:31.604Z,928.69
2016-10-24T13:37:42.887Z,928.65
2016-10-24T13:38:53.616Z,928.65
2016-10-24T13:40:04.331Z,928.66
2016-10-24T13:41:15.088Z,928.64
2016-10-24T13:42:25.804Z,928.74
2016-10-24T13:43:36.525Z,928.69
2016-10-24T13:44:47.253Z,928.73
2016-10-24T13:45:57.967Z,928.71
2016-10-24T13:47:10.262Z,928.74
2016-10-24T13:48:20.996Z,928.68
2016-10-24T13:49:31.718Z,928.69
2016-10-24T13:50:42.422Z,928.65
2016-10-24T13:51:53.148Z,928.61
2016-10-24T13:53:03.879Z,928.63
2016-10-24T13:54:14.645Z,928.59
2016-10-24T13:55:25.379Z,928.58
2016-10-24T13:56:36.111Z,928.58
2016-10-24T13:57:46.835Z,928.61
2016-10-24T13:58:57.534Z,928.59
2016-10-24T14:00:08.973Z,928.6
2016-10-24T14:01:19.719Z,928.61
2016-10-24T14:02:30.460Z,928.6
2016-10-24T14:03:41.249Z,928.59
2016-10-24T14:04:52.503Z,928.59
2016-10-24T14:06:03.234Z,928.56
2016-10-24T14:07:13.952Z,928.53
2016-10-24T14:08:25.206Z,928.54
2016-10-24T14:09:35.949Z,928.52
2016-10-24T14:10:46.645Z,928.52
2016-10-24T14:11:57.382Z,928.52
2016-10-24T14:13:08.087Z,928.46
2016-10-24T14:14:18.824Z,928.43
2016-10-24T14:15:29.535Z,928.38
2016-10-24T14:16:40.824Z,928.36
2016-10-24T14:17:51.587Z,928.31
2016-10-24T14:19:02.313Z,928.3
2016-10-24T14:20:13.036Z,928.28
2016-10-24T14:21:24.367Z,928.32
2016-10-24T14:22:35.610Z,928.25
2016-10-24T14:23:46.394Z,928.26
2016-10-24T14:24:57.636Z,928.2
2016-10-24T14:26:08.371Z,928.2
2016-10-24T14:27:19.076Z,928.22
2016-10-24T14:28:29.788Z,928.18
2016-10-24T14:29:40.520Z,928.2
2016-10-24T14:30:51.250Z,928.17
2016-10-24T14:32:02.508Z,928.16
2016-10-24T14:33:13.241Z,928.15
2016-10-24T14:34:24.014Z,928.15
2016-10-24T14:35:34.728Z,928.12
2016-10-24T14:36:45.477Z,928.12
2016-10-24T14:37:56.194Z,928.1
2016-10-24T14:39:06.919Z,928.07
2016-10-24T14:40:17.645Z,928.1
2016-10-24T14:41:28.891Z,928.05
2016-10-24T14:42:39.634Z,928.07
2016-10-24T14:43:50.345Z,928.03
2016-10-24T14:45:01.870Z,928.04
2016-10-24T14:46:12.649Z,928.05
2016-10-24T14:47:23.392Z,928.03
2016-10-24T14:48:34.681Z,928
2016-10-24T14:49:45.410Z,928.02
2016-10-24T14:50:56.665Z,927.99